createdAt,value
2023-01-19T00:01:43.551Z,1.50
2023-01-19T00:04:11.390Z,1.50
2023-01-19T00:06:39.416Z,1.50
2023-01-19T00:09:07.116Z,1.50
2023-01-19T00:11:35.044Z,1.40
2023-01-19T00:14:03.489Z,1.50
2023-01-19T00:16:31.463Z,1.50
2023-01-19T00:18:59.389Z,1.30
2023-01-19T00:21:27.201Z,1.30
2023-01-19T00:23:55.064Z,1.30
2023-01-19T00:26:22.950Z,1.40
2023-01-19T00:28:51.382Z,1.50
2023-01-19T00:31:21.837Z,1.60
2023-01-19T00:33:51.760Z,1.70
2023-01-19T00:36:20.389Z,1.70
2023-01-19T00:38:48.346Z,1.70
2023-01-19T00:41:17.456Z,1.70
2023-01-19T00:43:45.177Z,1.70
2023-01-19T00:46:13.031Z,1.70
2023-01-19T00:48:40.994Z,1.80
2023-01-19T00:51:08.683Z,1.80
2023-01-19T00:53:36.819Z,1.80
2023-01-19T00:56:05.071Z,1.80
2023-01-19T00:58:32.949Z,1.80
2023-01-19T01:01:04.874Z,1.80
2023-01-19T01:03:33.712Z,1.80
2023-01-19T01:06:01.923Z,1.70
2023-01-19T01:08:32.205Z,1.80
2023-01-19T01:11:00.290Z,1.80
2023-01-19T01:13:29.327Z,1.80
2023-01-19T01:15:58.001Z,1.90
2023-01-19T01:18:26.437Z,1.90
2023-01-19T01:21:01.727Z,1.80
2023-01-19T01:23:29.729Z,1.90
2023-01-19T01:25:57.432Z,1.90
2023-01-19T01:28:26.857Z,1.90
2023-01-19T01:30:57.516Z,1.90
2023-01-19T01:33:41.241Z,1.90
2023-01-19T01:36:12.172Z,1.90
2023-01-19T01:38:42.502Z,1.80
2023-01-19T01:41:10.733Z,1.80
2023-01-19T01:43:58.546Z,1.70
2023-01-19T01:46:32.162Z,1.80
2023-01-19T01:49:17.788Z,1.80
2023-01-19T01:51:55.190Z,1.90
2023-01-19T01:54:33.700Z,1.90
2023-01-19T01:57:12.946Z,1.90
2023-01-19T01:59:50.697Z,1.90
2023-01-19T02:02:50.924Z,1.90
2023-01-19T02:05:35.624Z,1.90
2023-01-19T02:09:05.796Z,1.90
2023-01-19T02:11:54.606Z,1.90
2023-01-19T02:14:22.867Z,1.90
2023-01-19T02:16:50.851Z,2.00
2023-01-19T02:19:42.565Z,2.10
2023-01-19T02:22:40.741Z,2.10
2023-01-19T02:25:09.352Z,2.10
2023-01-19T02:27:37.919Z,2.00
2023-01-19T02:30:08.667Z,1.90
2023-01-19T02:32:36.625Z,1.90
2023-01-19T02:35:05.539Z,1.80
2023-01-19T02:37:40.209Z,1.80
2023-01-19T02:40:22.264Z,1.80
2023-01-19T02:42:56.698Z,1.90
2023-01-19T02:45:27.354Z,1.80
2023-01-19T02:47:55.498Z,1.90
2023-01-19T02:50:49.509Z,1.90
2023-01-19T02:54:35.771Z,1.90
2023-01-19T02:58:14.375Z,1.80
2023-01-19T03:01:21.804Z,1.70
2023-01-19T03:04:34.263Z,1.80
2023-01-19T03:07:21.370Z,1.80
2023-01-19T03:10:31.012Z,1.80
2023-01-19T03:13:26.482Z,1.80
2023-01-19T03:16:26.010Z,1.90
2023-01-19T03:19:17.012Z,1.90
2023-01-19T03:22:05.585Z,2.00
2023-01-19T03:24:42.239Z,2.00
2023-01-19T03:27:41.367Z,2.00
2023-01-19T03:30:26.183Z,2.00
2023-01-19T03:33:12.920Z,1.90
2023-01-19T03:35:54.905Z,2.00
2023-01-19T03:38:29.013Z,2.00
2023-01-19T03:41:08.722Z,2.00
2023-01-19T03:43:40.516Z,2.00
2023-01-19T03:46:11.307Z,2.00
2023-01-19T03:48:39.838Z,1.90
2023-01-19T03:51:11.442Z,2.00
2023-01-19T03:53:39.326Z,2.10
2023-01-19T03:56:18.829Z,2.10
2023-01-19T03:58:47.605Z,2.10
2023-01-19T04:01:18.797Z,2.20
2023-01-19T04:03:47.485Z,2.10
2023-01-19T04:06:15.359Z,2.10
2023-01-19T04:08:43.295Z,1.90
2023-01-19T04:11:11.362Z,1.90
2023-01-19T04:13:39.247Z,1.80
2023-01-19T04:16:08.095Z,1.80
2023-01-19T04:18:36.130Z,1.70
2023-01-19T04:21:08.247Z,1.60
2023-01-19T04:23:36.159Z,1.50
2023-01-19T04:26:09.529Z,1.30
2023-01-19T04:28:37.692Z,1.30
2023-01-19T04:31:08.097Z,1.30
2023-01-19T04:33:35.871Z,1.20
2023-01-19T04:36:04.289Z,1.10
2023-01-19T04:38:32.043Z,1.10
2023-01-19T04:40:59.758Z,1.00
2023-01-19T04:43:27.529Z,1.00
2023-01-19T04:45:55.292Z,1.10
2023-01-19T04:48:23.146Z,1.10
2023-01-19T04:50:52.838Z,1.10
2023-01-19T04:53:20.697Z,1.20
2023-01-19T04:55:52.688Z,1.20
2023-01-19T04:58:20.598Z,1.10
2023-01-19T05:00:48.610Z,1.00
2023-01-19T05:03:16.261Z,1.10
2023-01-19T05:05:44.001Z,1.10
2023-01-19T05:08:11.904Z,1.10
2023-01-19T05:10:39.658Z,1.10
2023-01-19T05:13:07.603Z,1.00
2023-01-19T05:15:35.438Z,1.00
2023-01-19T05:18:03.232Z,0.90
2023-01-19T05:20:30.920Z,0.90
2023-01-19T05:22:59.220Z,1.00
2023-01-19T05:25:27.326Z,0.90
2023-01-19T05:27:54.947Z,0.90
2023-01-19T05:30:22.822Z,0.90
2023-01-19T05:32:51.285Z,0.90
2023-01-19T05:35:27.744Z,0.90
2023-01-19T05:37:59.584Z,0.90
2023-01-19T05:40:27.236Z,0.90
2023-01-19T05:42:55.137Z,1.00
2023-01-19T05:45:22.737Z,1.00
2023-01-19T05:47:51.097Z,1.00
2023-01-19T05:50:18.956Z,0.90
2023-01-19T05:52:47.208Z,1.00
2023-01-19T05:55:16.654Z,1.00
2023-01-19T05:57:44.422Z,1.00
2023-01-19T06:00:13.854Z,1.00
2023-01-19T06:02:41.789Z,0.90
2023-01-19T06:05:10.486Z,0.90
2023-01-19T06:07:38.295Z,0.90
2023-01-19T06:10:07.864Z,0.90
2023-01-19T06:12:36.122Z,0.90
2023-01-19T06:15:04.775Z,0.90
2023-01-19T06:17:36.453Z,0.80
2023-01-19T06:20:05.521Z,0.80
2023-01-19T06:22:33.552Z,0.90
2023-01-19T06:25:01.283Z,0.90
2023-01-19T06:27:29.342Z,0.80
2023-01-19T06:29:57.204Z,0.80
2023-01-19T06:32:24.978Z,0.80
2023-01-19T06:34:54.014Z,0.80
2023-01-19T06:37:21.964Z,0.80
2023-01-19T06:39:49.714Z,0.80
2023-01-19T06:42:17.313Z,0.80
2023-01-19T06:44:47.623Z,0.80
2023-01-19T06:47:16.936Z,0.80
2023-01-19T06:49:44.977Z,0.80
2023-01-19T06:52:17.708Z,0.80
2023-01-19T06:54:46.326Z,0.80
2023-01-19T06:57:15.403Z,0.80
2023-01-19T06:59:43.065Z,0.80
2023-01-19T07:02:27.665Z,0.80
2023-01-19T07:04:57.242Z,0.80
2023-01-19T07:07:25.309Z,0.80
2023-01-19T07:09:54.338Z,0.80
2023-01-19T07:12:23.485Z,0.90
2023-01-19T07:14:51.818Z,0.90
2023-01-19T07:17:20.477Z,0.90
2023-01-19T07:19:48.170Z,0.90
2023-01-19T07:22:15.875Z,1.00
2023-01-19T07:24:43.995Z,1.00
2023-01-19T07:27:11.747Z,1.00
2023-01-19T07:29:40.017Z,1.00
2023-01-19T07:32:08.197Z,1.00
2023-01-19T07:34:36.566Z,1.00
2023-01-19T07:37:04.572Z,1.00
2023-01-19T07:39:32.256Z,1.10
2023-01-19T07:42:00.483Z,1.10
2023-01-19T07:44:28.163Z,1.20
2023-01-19T07:46:55.943Z,1.20
2023-01-19T07:49:23.634Z,1.20
2023-01-19T07:51:51.263Z,1.20
2023-01-19T07:54:19.067Z,1.20
2023-01-19T07:56:46.779Z,1.20
2023-01-19T07:59:14.800Z,1.20
2023-01-19T08:01:42.563Z,1.20
2023-01-19T08:04:11.131Z,1.30
2023-01-19T08:06:41.226Z,1.30
2023-01-19T08:09:09.089Z,1.30
2023-01-19T08:11:36.833Z,1.40
2023-01-19T08:14:07.881Z,1.30
2023-01-19T08:16:37.216Z,1.40
2023-01-19T08:19:05.721Z,1.40
2023-01-19T08:21:33.783Z,1.50
2023-01-19T08:24:01.625Z,1.50
2023-01-19T08:26:35.706Z,1.50
2023-01-19T08:29:06.193Z,1.50
2023-01-19T08:31:34.177Z,1.50
2023-01-19T08:34:02.057Z,1.60
2023-01-19T08:36:30.559Z,1.50
2023-01-19T08:38:58.408Z,1.60
2023-01-19T08:41:26.999Z,1.60
2023-01-19T08:43:55.314Z,1.60
2023-01-19T08:46:24.242Z,1.70
2023-01-19T08:48:51.912Z,1.70
2023-01-19T08:51:19.878Z,1.70
2023-01-19T08:53:48.339Z,1.70
2023-01-19T08:56:16.645Z,1.70
2023-01-19T08:58:49.399Z,1.70
2023-01-19T09:01:25.585Z,1.70
2023-01-19T09:03:54.679Z,1.70
2023-01-19T09:06:23.618Z,1.70
2023-01-19T09:08:51.537Z,1.70
2023-01-19T09:11:19.970Z,1.70
2023-01-19T09:13:47.779Z,1.80
2023-01-19T09:16:16.031Z,1.80
2023-01-19T09:18:46.273Z,1.80
2023-01-19T09:21:15.196Z,1.80
2023-01-19T09:23:43.170Z,1.80
2023-01-19T09:26:11.454Z,1.70
2023-01-19T09:28:39.860Z,1.70
2023-01-19T09:31:09.960Z,1.70
2023-01-19T09:33:38.034Z,1.80
2023-01-19T09:36:06.522Z,1.80
2023-01-19T09:38:34.258Z,1.80
2023-01-19T09:41:02.324Z,1.80
2023-01-19T09:43:47.555Z,1.80
2023-01-19T09:46:40.545Z,1.80
2023-01-19T09:49:28.102Z,1.80
2023-01-19T09:51:55.790Z,1.80
2023-01-19T09:54:59.206Z,1.90
2023-01-19T09:57:30.174Z,2.00
2023-01-19T10:00:00.762Z,2.20
2023-01-19T10:02:59.340Z,2.30
2023-01-19T10:05:52.118Z,2.10
2023-01-19T10:09:17.452Z,2.30
2023-01-19T10:12:31.969Z,2.30
2023-01-19T10:15:42.472Z,2.30
2023-01-19T10:18:52.321Z,2.40
2023-01-19T10:21:41.076Z,2.30
2023-01-19T10:24:45.599Z,2.20
2023-01-19T10:27:27.413Z,2.10
2023-01-19T10:30:02.502Z,2.10
2023-01-19T10:32:43.382Z,2.10
2023-01-19T10:35:26.342Z,2.00
2023-01-19T10:38:04.931Z,1.90
2023-01-19T10:41:12.312Z,2.00
2023-01-19T10:43:46.048Z,2.10
2023-01-19T10:46:46.142Z,2.10
2023-01-19T10:49:42.740Z,2.10
2023-01-19T10:52:39.835Z,2.10
2023-01-19T10:55:35.025Z,2.30
2023-01-19T10:58:03.095Z,2.40
2023-01-19T11:00:43.088Z,2.30
2023-01-19T11:03:32.663Z,2.30
2023-01-19T11:06:15.673Z,2.50
2023-01-19T11:08:48.519Z,2.60
2023-01-19T11:11:16.415Z,2.60
2023-01-19T11:13:45.374Z,2.60
2023-01-19T11:16:35.892Z,2.90
2023-01-19T11:19:05.328Z,3.00
2023-01-19T11:21:34.397Z,3.10
2023-01-19T11:24:13.380Z,3.20
2023-01-19T11:27:02.991Z,3.20
2023-01-19T11:29:32.080Z,2.90
2023-01-19T11:32:23.309Z,2.90
2023-01-19T11:34:51.194Z,2.80
2023-01-19T11:37:19.011Z,2.60
2023-01-19T11:40:02.773Z,2.60
2023-01-19T11:42:36.668Z,2.60
2023-01-19T11:45:20.251Z,2.70
2023-01-19T11:47:51.912Z,2.80
2023-01-19T11:50:44.376Z,2.90
2023-01-19T11:53:29.316Z,2.90
2023-01-19T11:56:23.878Z,3.00
2023-01-19T11:58:52.064Z,3.10
2023-01-19T12:01:35.807Z,3.20
2023-01-19T12:04:19.425Z,3.20
2023-01-19T12:06:56.655Z,3.10
2023-01-19T12:09:42.942Z,3.00
2023-01-19T12:12:33.568Z,2.90
2023-01-19T12:15:35.157Z,2.80
2023-01-19T12:18:13.054Z,2.80
2023-01-19T12:20:54.930Z,3.00
2023-01-19T12:23:53.869Z,3.00
2023-01-19T12:26:55.611Z,3.00
2023-01-19T12:29:33.827Z,3.10
2023-01-19T12:32:20.391Z,3.20
2023-01-19T12:34:52.430Z,3.00
2023-01-19T12:37:42.410Z,3.00
2023-01-19T12:40:31.491Z,3.20
2023-01-19T12:43:07.867Z,3.10
2023-01-19T12:45:39.922Z,3.20
2023-01-19T12:48:28.181Z,3.20
2023-01-19T12:50:56.022Z,3.00
2023-01-19T12:53:23.800Z,3.00
2023-01-19T12:56:10.189Z,3.20
2023-01-19T12:58:38.021Z,3.30
2023-01-19T13:01:21.887Z,3.30
2023-01-19T13:04:38.851Z,3.10
2023-01-19T13:07:10.715Z,3.10
2023-01-19T13:09:40.319Z,3.40
2023-01-19T13:12:27.041Z,3.50
2023-01-19T13:15:35.686Z,3.50
2023-01-19T13:18:04.761Z,3.60
2023-01-19T13:21:03.583Z,3.50
2023-01-19T13:23:57.402Z,3.60
2023-01-19T13:27:00.252Z,3.50
2023-01-19T13:29:43.079Z,3.40
2023-01-19T13:32:21.546Z,3.60
2023-01-19T13:34:59.233Z,3.60
2023-01-19T13:37:45.388Z,3.80
2023-01-19T13:40:37.010Z,3.80
2023-01-19T13:43:18.294Z,3.70
2023-01-19T13:45:53.532Z,3.70
2023-01-19T13:48:24.783Z,3.70
2023-01-19T13:51:07.349Z,3.60
2023-01-19T13:53:36.689Z,3.50
2023-01-19T13:56:21.947Z,3.50
2023-01-19T13:59:10.473Z,3.60
2023-01-19T14:01:46.911Z,3.60
2023-01-19T14:04:34.570Z,3.60
2023-01-19T14:07:23.532Z,3.60
2023-01-19T14:10:06.397Z,3.60
2023-01-19T14:12:36.135Z,3.70
2023-01-19T14:15:14.491Z,3.80
2023-01-19T14:17:42.790Z,3.90
2023-01-19T14:20:30.908Z,3.90
2023-01-19T14:22:58.802Z,3.90
2023-01-19T14:25:38.705Z,3.90
2023-01-19T14:28:44.667Z,4.00
2023-01-19T14:31:28.211Z,4.00
2023-01-19T14:33:58.688Z,3.90
2023-01-19T14:36:39.898Z,4.00
2023-01-19T14:39:25.175Z,3.80
2023-01-19T14:41:57.682Z,3.70
2023-01-19T14:44:39.255Z,3.50
2023-01-19T14:47:41.624Z,3.40
2023-01-19T14:50:30.361Z,3.40
2023-01-19T14:53:24.532Z,3.40
2023-01-19T14:56:05.629Z,3.20
2023-01-19T14:58:36.246Z,3.10
2023-01-19T15:01:04.967Z,2.90
2023-01-19T15:03:44.312Z,2.80
2023-01-19T15:06:23.594Z,2.80
2023-01-19T15:08:55.861Z,2.70
2023-01-19T15:11:36.663Z,2.50
2023-01-19T15:14:04.505Z,2.60
2023-01-19T15:16:35.023Z,2.50
2023-01-19T15:19:02.833Z,2.40
2023-01-19T15:21:30.652Z,2.30
2023-01-19T15:23:58.711Z,2.20
2023-01-19T15:26:27.990Z,2.20
2023-01-19T15:28:57.370Z,2.10
2023-01-19T15:31:27.176Z,2.00
2023-01-19T15:33:55.605Z,2.00
2023-01-19T15:36:25.554Z,1.90
2023-01-19T15:38:53.483Z,1.80
2023-01-19T15:41:30.116Z,1.80
2023-01-19T15:43:59.395Z,1.90
2023-01-19T15:46:28.274Z,1.80
2023-01-19T15:48:56.213Z,1.80
2023-01-19T15:51:27.402Z,1.70
2023-01-19T15:53:56.640Z,1.70
2023-01-19T15:56:30.678Z,1.70
2023-01-19T15:59:02.077Z,1.90
2023-01-19T16:01:34.765Z,1.90
2023-01-19T16:04:08.109Z,2.00
2023-01-19T16:06:36.342Z,2.00
2023-01-19T16:09:09.172Z,2.00
2023-01-19T16:11:38.453Z,1.90
2023-01-19T16:14:06.242Z,1.80
2023-01-19T16:16:35.419Z,1.70
2023-01-19T16:19:03.358Z,1.60
2023-01-19T16:21:31.161Z,1.70
2023-01-19T16:23:59.003Z,1.70
2023-01-19T16:26:34.692Z,1.80
2023-01-19T16:29:10.811Z,1.80
2023-01-19T16:31:45.647Z,1.80
2023-01-19T16:34:13.443Z,1.80
2023-01-19T16:36:42.833Z,1.80
2023-01-19T16:39:16.070Z,1.80
2023-01-19T16:41:46.351Z,1.90
2023-01-19T16:44:17.661Z,1.80
2023-01-19T16:46:49.841Z,1.90
2023-01-19T16:49:28.595Z,1.90
2023-01-19T16:51:58.834Z,2.00
2023-01-19T16:54:29.395Z,2.00
2023-01-19T16:56:59.002Z,2.00
2023-01-19T16:59:27.575Z,2.00
2023-01-19T17:01:56.204Z,1.90
2023-01-19T17:04:39.087Z,1.90
2023-01-19T17:07:06.892Z,2.00
2023-01-19T17:09:34.861Z,2.00
2023-01-19T17:12:02.593Z,2.00
2023-01-19T17:14:30.214Z,2.00
2023-01-19T17:16:59.752Z,2.10
2023-01-19T17:19:30.264Z,2.00
2023-01-19T17:21:58.193Z,2.00
2023-01-19T17:24:25.994Z,2.00
2023-01-19T17:26:53.792Z,2.00
2023-01-19T17:29:21.439Z,2.00
2023-01-19T17:31:52.077Z,2.00
2023-01-19T17:34:19.851Z,2.00
2023-01-19T17:36:50.617Z,2.10
2023-01-19T17:39:18.687Z,2.10
2023-01-19T17:41:46.869Z,2.00
2023-01-19T17:44:15.518Z,1.90
2023-01-19T17:46:45.120Z,1.80
2023-01-19T17:49:13.055Z,1.70
2023-01-19T17:51:40.948Z,1.70
2023-01-19T17:54:10.954Z,1.60
2023-01-19T17:56:41.429Z,1.50
2023-01-19T17:59:10.032Z,1.50
2023-01-19T18:01:40.697Z,1.60
2023-01-19T18:04:09.724Z,1.60
2023-01-19T18:06:39.083Z,1.40
2023-01-19T18:09:08.164Z,1.20
2023-01-19T18:11:39.162Z,1.10
2023-01-19T18:14:07.205Z,0.90
2023-01-19T18:16:36.253Z,0.90
2023-01-19T18:19:04.456Z,1.00
2023-01-19T18:21:32.633Z,1.10
2023-01-19T18:24:06.649Z,1.10
2023-01-19T18:26:37.934Z,1.20
2023-01-19T18:29:06.028Z,1.20
2023-01-19T18:31:34.460Z,1.30
2023-01-19T18:34:04.400Z,1.30
2023-01-19T18:36:34.429Z,1.40
2023-01-19T18:39:02.759Z,1.40
2023-01-19T18:41:31.101Z,1.40
2023-01-19T18:43:59.855Z,1.40
2023-01-19T18:46:27.854Z,1.40
2023-01-19T18:48:55.632Z,1.40
2023-01-19T18:51:23.657Z,1.40
2023-01-19T18:53:51.725Z,1.40
2023-01-19T18:56:20.007Z,1.40
2023-01-19T18:58:48.056Z,1.40
2023-01-19T19:01:33.015Z,1.50
2023-01-19T19:04:01.961Z,1.40
2023-01-19T19:06:29.852Z,1.50
2023-01-19T19:08:59.665Z,1.50
2023-01-19T19:11:28.715Z,1.60
2023-01-19T19:14:02.245Z,1.60
2023-01-19T19:16:33.350Z,1.60
2023-01-19T19:19:02.993Z,1.60
2023-01-19T19:21:30.732Z,1.70
2023-01-19T19:23:59.380Z,1.70
2023-01-19T19:26:28.555Z,1.70
2023-01-19T19:28:57.132Z,1.80
2023-01-19T19:31:27.628Z,1.70
2023-01-19T19:33:59.813Z,1.80
2023-01-19T19:36:29.239Z,1.80
2023-01-19T19:38:59.769Z,1.80
2023-01-19T19:41:32.298Z,1.80
2023-01-19T19:44:01.058Z,1.80
2023-01-19T19:46:29.322Z,1.80
2023-01-19T19:48:57.312Z,1.80
2023-01-19T19:51:28.828Z,1.90
2023-01-19T19:54:01.299Z,1.90
2023-01-19T19:56:34.354Z,1.90
2023-01-19T19:59:02.809Z,1.90
2023-01-19T20:01:33.671Z,1.90
2023-01-19T20:04:13.012Z,1.80
2023-01-19T20:06:44.883Z,1.80
2023-01-19T20:09:15.735Z,1.80
2023-01-19T20:11:50.152Z,1.80
2023-01-19T20:14:18.382Z,1.70
2023-01-19T20:16:46.237Z,1.70
2023-01-19T20:19:14.523Z,1.60
2023-01-19T20:21:43.428Z,1.50
2023-01-19T20:24:19.980Z,1.50
2023-01-19T20:26:54.858Z,1.50
2023-01-19T20:29:23.218Z,1.50
2023-01-19T20:31:57.146Z,1.50
2023-01-19T20:34:33.457Z,1.50
2023-01-19T20:37:04.821Z,1.60
2023-01-19T20:39:35.353Z,1.60
2023-01-19T20:42:06.014Z,1.60
2023-01-19T20:44:33.895Z,1.60
2023-01-19T20:47:01.794Z,1.70
2023-01-19T20:49:29.616Z,1.80
2023-01-19T20:51:57.481Z,1.80
2023-01-19T20:54:30.611Z,1.80
2023-01-19T20:56:59.962Z,1.80
2023-01-19T20:59:28.287Z,1.80
2023-01-19T21:01:58.947Z,1.80
2023-01-19T21:04:26.899Z,1.70
2023-01-19T21:06:54.744Z,1.70
2023-01-19T21:09:22.997Z,1.70
2023-01-19T21:11:50.745Z,1.70
2023-01-19T21:14:18.549Z,1.70
2023-01-19T21:16:46.344Z,1.80
2023-01-19T21:19:14.229Z,1.80
2023-01-19T21:21:41.921Z,1.80
2023-01-19T21:24:11.640Z,1.70
2023-01-19T21:26:42.013Z,1.80
2023-01-19T21:29:13.765Z,1.70
2023-01-19T21:31:43.067Z,1.70
2023-01-19T21:34:11.789Z,1.70
2023-01-19T21:36:40.291Z,1.60
2023-01-19T21:39:09.228Z,1.70
2023-01-19T21:41:39.944Z,1.70
2023-01-19T21:44:14.049Z,1.70
2023-01-19T21:46:45.607Z,1.70
2023-01-19T21:49:21.449Z,1.60
2023-01-19T21:51:52.886Z,1.60
2023-01-19T21:54:20.858Z,1.60
2023-01-19T21:56:48.514Z,1.60
2023-01-19T21:59:18.008Z,1.50
2023-01-19T22:01:47.134Z,1.50
2023-01-19T22:04:27.204Z,1.50
2023-01-19T22:06:57.217Z,1.60
2023-01-19T22:09:25.640Z,1.70
2023-01-19T22:11:53.685Z,1.70
2023-01-19T22:14:21.372Z,1.70
2023-01-19T22:16:49.326Z,1.60
2023-01-19T22:19:17.803Z,1.60
2023-01-19T22:21:46.406Z,1.50
2023-01-19T22:24:17.383Z,1.40
2023-01-19T22:26:45.356Z,1.30
2023-01-19T22:29:13.981Z,1.20
2023-01-19T22:31:43.267Z,1.20
2023-01-19T22:34:12.241Z,1.10
2023-01-19T22:36:40.907Z,1.00
2023-01-19T22:39:14.580Z,0.90
2023-01-19T22:41:47.420Z,0.80
2023-01-19T22:44:21.389Z,0.90
2023-01-19T22:46:54.938Z,1.00
2023-01-19T22:49:23.125Z,1.00
2023-01-19T22:51:50.749Z,1.00
2023-01-19T22:54:18.555Z,1.00
2023-01-19T22:56:46.329Z,1.00
2023-01-19T22:59:14.237Z,1.10
2023-01-19T23:01:44.576Z,1.20
2023-01-19T23:04:16.587Z,1.30
2023-01-19T23:06:50.285Z,1.40
2023-01-19T23:09:19.679Z,1.40
2023-01-19T23:11:53.028Z,1.40
2023-01-19T23:14:22.743Z,1.40
2023-01-19T23:16:50.707Z,1.50
2023-01-19T23:19:19.696Z,1.50
2023-01-19T23:21:51.092Z,1.40
2023-01-19T23:24:19.208Z,1.50
2023-01-19T23:26:49.305Z,1.60
2023-01-19T23:29:18.125Z,1.60
2023-01-19T23:31:49.928Z,1.60
2023-01-19T23:34:18.163Z,1.60
2023-01-19T23:36:46.151Z,1.70
2023-01-19T23:39:20.680Z,1.70
2023-01-19T23:41:49.773Z,1.60
2023-01-19T23:44:19.040Z,1.70
2023-01-19T23:46:47.558Z,1.70
2023-01-19T23:49:15.535Z,1.60
2023-01-19T23:51:43.381Z,1.60
2023-01-19T23:54:12.399Z,1.60
2023-01-19T23:56:42.704Z,1.60
2023-01-19T23:59:16.544Z,1.50
